Weather at Sjöbo/Sövde Airfield

Public forecast

Using degrees Celsius for public forecast. Weather courtesy of forecast.io.

Closest aviation weather report (METAR) to Sjöbo/Sövde Airfield

Closest report is Malmö Sturup Airport, 11.3 nm (20.9 km) WSW.

2024/05/21 01:50 (retrieved 26 minutes ago)

ESMS 210150Z 07011KT CAVOK 12/06 Q1017

Closest aviation forecast (TAF) to Sjöbo/Sövde Airfield

Closest forecast is Dortmund Airport, 326.5 nm (604.7 km) SW.

2024/05/20 21:39 (retrieved 5 hours ago)

TAF EDLW 202130Z 2021/2118 CNL